Clinton, MS (39058)

5:09 PM CDT on July 06, 2015 (GMT -0500)
John Bell Williams, Raymond | | Change Station
CLOSE
Current Station
Airport
Location: John Bell Williams, Raymond,
Elevation: 246 ft
Nearby Weather Stations

Elev 246 ft 32.30 °N, 90.41 °W | Updated 14 minutes ago

Clear
Clear
90 °F
Feels Like 119 °F
N
8
Wind Variable Wind from SSW

Today
High -- | Low -- °F
--% Chance of Precip.
Yesterday
High -- | Low -- °F
Precip. -- in
6:00 AM 8:11 PM
Waning Gibbous, 72% visible
Pressure 30.08 in
Visibility 7.0 miles
Clouds Clear
Heat Index 119 °F
Dew Point 86 °F
Humidity 89%
Rainfall 0.00 in
Snow Depth Not available.
UV 5 out of 12
Pollen 3.40 out of 12
Air Quality Not available.
Flu Activity Not available.
METAR KJVW 062155Z AUTO 21007KT 7SM CLR 32/30 A3008 RMK AO2

More Conditions Fewer Conditions

Pressure 30.08 in
Visibility 7.0 miles
Clouds Clear
Heat Index 119 °F
Dew Point 86 °F
Humidity 89%
Rainfall 0.00 in
Snow Depth Not available.
UV 5 out of 12
Pollen 3.40 out of 12
Air Quality Not available.
Flu Activity Not available.
METAR KJVW 062155Z AUTO 21007KT 7SM CLR 32/30 A3008 RMK AO2

More Conditions Fewer Conditions

10-Day Weather Forecast

×

Almanac

Astronomy

Jul. 06, 2015 Rise Set
Actual Time
Civil Twilight
Nautical Twilight
Astronomical Twilight
Moon
Length of Visible Light
Length of Day
Tomorrow will be .
, % of the Moon is Illuminated

Today's Extremes

State Highs State Lows

Community

WunderPhotos

Upload Photos

1,835,664 photos uploaded!

WunderBlogs® & News

Nearby

Air Quality

  Air Quality AQ Index Pollutant
Not available.

Snow Depth

Station Depth Elevation

Earthquake Activity

City Distance Mag. Time & Date
Minimum magnitude displayed is 2.5.

Coastal Water Temperatures

Place Temperature

Stations

Nearby Weather Stations

Station Location Temp. Windchill Dew Point Humidity Wind Precip. Elev Updated Type